createdAt,value
2019-06-10T00:01:33.085Z,2.60
2019-06-10T00:04:05.182Z,2.40
2019-06-10T00:06:32.222Z,2.77
2019-06-10T00:09:03.688Z,3.00
2019-06-10T00:11:31.559Z,2.77
2019-06-10T00:14:02.441Z,2.70
2019-06-10T00:16:30.947Z,2.63
2019-06-10T00:19:02.830Z,2.67
2019-06-10T00:21:30.789Z,2.33
2019-06-10T00:24:02.160Z,2.90
2019-06-10T00:26:30.722Z,2.80
2019-06-10T00:29:00.685Z,2.70
2019-06-10T00:31:31.235Z,3.03
2019-06-10T00:34:02.952Z,2.53
2019-06-10T00:36:30.957Z,2.73
2019-06-10T00:39:02.465Z,2.80
2019-06-10T00:41:31.326Z,2.63
2019-06-10T00:44:01.879Z,2.60
2019-06-10T00:46:31.641Z,3.00
2019-06-10T00:49:02.958Z,2.63
2019-06-10T00:51:31.359Z,2.73
2019-06-10T00:54:03.280Z,2.50
2019-06-10T00:56:30.884Z,2.70
2019-06-10T00:59:01.021Z,2.33
2019-06-10T01:01:31.254Z,3.20
2019-06-10T01:04:02.957Z,2.60
2019-06-10T01:06:31.806Z,2.77
2019-06-10T01:09:00.768Z,2.57
2019-06-10T01:11:31.009Z,3.20
2019-06-10T01:14:01.446Z,3.10
2019-06-10T01:16:31.795Z,2.83
2019-06-10T01:19:01.421Z,2.67
2019-06-10T01:21:31.312Z,2.77
2019-06-10T01:24:01.218Z,2.97
2019-06-10T01:26:31.006Z,2.63
2019-06-10T01:29:01.007Z,3.17
2019-06-10T01:31:31.736Z,2.80
2019-06-10T01:34:00.748Z,3.20
2019-06-10T01:36:31.342Z,3.10
2019-06-10T01:39:01.543Z,3.57
2019-06-10T01:41:30.648Z,3.10
2019-06-10T01:44:01.575Z,2.90
2019-06-10T01:46:31.608Z,3.23
2019-06-10T01:49:00.802Z,2.67
2019-06-10T01:51:31.526Z,3.17
2019-06-10T01:54:01.312Z,3.08
2019-06-10T01:56:31.495Z,3.20
2019-06-10T01:59:01.493Z,3.13
2019-06-10T02:01:48.336Z,2.90
2019-06-10T02:04:18.223Z,3.00
2019-06-10T02:06:47.555Z,2.70
2019-06-10T02:09:17.204Z,3.27
2019-06-10T02:11:46.736Z,3.40
2019-06-10T02:14:17.793Z,3.07
2019-06-10T02:16:45.957Z,2.80
2019-06-10T02:19:16.015Z,2.90
2019-06-10T02:21:45.143Z,3.03
2019-06-10T02:24:14.780Z,3.30
2019-06-10T02:26:44.298Z,3.13
2019-06-10T02:29:14.433Z,3.17
2019-06-10T02:31:43.822Z,3.20
2019-06-10T02:34:17.163Z,3.10
2019-06-10T02:36:44.470Z,3.10
2019-06-10T02:39:20.162Z,2.90
2019-06-10T02:41:44.783Z,2.93
2019-06-10T02:44:17.316Z,2.90
2019-06-10T02:46:44.286Z,3.03
2019-06-10T02:49:26.459Z,2.90
2019-06-10T02:51:44.093Z,2.70
2019-06-10T02:54:16.110Z,3.10
2019-06-10T02:56:44.086Z,2.60
2019-06-10T02:59:13.456Z,2.80
2019-06-10T03:01:43.838Z,3.30
2019-06-10T03:04:13.861Z,2.77
2019-06-10T03:06:44.940Z,2.70
2019-06-10T03:09:14.149Z,2.60
2019-06-10T03:11:44.906Z,2.70
2019-06-10T03:14:13.734Z,2.83
2019-06-10T03:16:49.327Z,2.53
2019-06-10T03:19:37.017Z,2.90
2019-06-10T03:21:48.447Z,2.43
2019-06-10T03:24:17.150Z,3.17
2019-06-10T03:26:45.852Z,2.93
2019-06-10T03:29:14.572Z,2.83
2019-06-10T03:31:47.950Z,2.70
2019-06-10T03:34:14.686Z,2.43
2019-06-10T03:36:44.153Z,2.60
2019-06-10T03:39:13.389Z,2.67
2019-06-10T03:41:42.441Z,2.87
2019-06-10T03:44:13.110Z,2.60
2019-06-10T03:46:43.154Z,2.80
2019-06-10T03:49:12.645Z,2.70
2019-06-10T03:51:42.760Z,2.90
2019-06-10T03:54:13.125Z,2.67
2019-06-10T03:56:43.036Z,2.70
2019-06-10T03:59:12.357Z,3.07
2019-06-10T04:01:42.681Z,2.67
2019-06-10T04:04:13.022Z,2.70
2019-06-10T04:06:44.295Z,2.47
2019-06-10T04:09:12.565Z,2.90
2019-06-10T04:11:43.178Z,2.50
2019-06-10T04:14:13.000Z,2.70
2019-06-10T04:16:43.357Z,2.77
2019-06-10T04:19:13.145Z,2.87
2019-06-10T04:21:43.216Z,3.07
2019-06-10T04:24:12.861Z,2.77
2019-06-10T04:26:43.481Z,2.70
2019-06-10T04:29:12.915Z,2.83
2019-06-10T04:31:42.525Z,2.50
2019-06-10T04:34:12.441Z,2.80
2019-06-10T04:36:42.243Z,2.73
2019-06-10T04:39:12.522Z,2.50
2019-06-10T04:41:42.687Z,2.87
2019-06-10T04:44:13.197Z,3.03
2019-06-10T04:46:42.815Z,2.60
2019-06-10T04:49:13.187Z,2.90
2019-06-10T04:51:43.439Z,2.80
2019-06-10T04:54:13.343Z,2.60
2019-06-10T04:56:42.964Z,3.10
2019-06-10T04:59:12.471Z,2.70
2019-06-10T05:01:42.589Z,2.67
2019-06-10T05:04:12.548Z,2.90
2019-06-10T05:06:42.267Z,2.70
2019-06-10T05:09:12.472Z,2.73
2019-06-10T05:11:43.190Z,3.20
2019-06-10T05:14:13.209Z,2.80
2019-06-10T05:16:43.151Z,2.53
2019-06-10T05:19:12.823Z,2.73
2019-06-10T05:21:42.545Z,2.70
2019-06-10T05:24:12.410Z,2.83
2019-06-10T05:26:42.628Z,2.60
2019-06-10T05:29:12.129Z,2.60
2019-06-10T05:31:43.610Z,2.67
2019-06-10T05:34:13.046Z,2.50
2019-06-10T05:36:43.650Z,2.50
2019-06-10T05:39:12.719Z,2.57
2019-06-10T05:41:43.276Z,2.90
2019-06-10T05:44:13.505Z,2.80
2019-06-10T05:46:43.603Z,2.70
2019-06-10T05:49:12.703Z,2.67
2019-06-10T05:51:42.326Z,2.70
2019-06-10T05:54:12.783Z,3.00
2019-06-10T05:56:43.273Z,2.77
2019-06-10T05:59:12.542Z,3.00
2019-06-10T06:01:43.227Z,2.60
2019-06-10T06:04:12.653Z,2.53
2019-06-10T06:06:44.345Z,2.63
2019-06-10T06:09:12.936Z,2.97
2019-06-10T06:11:43.060Z,2.77
2019-06-10T06:14:13.295Z,2.60
2019-06-10T06:16:43.333Z,2.90
2019-06-10T06:19:12.639Z,2.80
2019-06-10T06:21:46.621Z,2.60
2019-06-10T06:24:12.924Z,3.00
2019-06-10T06:26:43.253Z,2.70
2019-06-10T06:29:13.023Z,2.63
2019-06-10T06:31:42.941Z,2.60
2019-06-10T06:34:13.907Z,2.70
2019-06-10T06:36:42.544Z,2.60
2019-06-10T06:39:12.952Z,2.73
2019-06-10T06:41:42.695Z,2.73
2019-06-10T06:44:13.024Z,2.57
2019-06-10T06:46:42.989Z,2.70
2019-06-10T06:49:12.810Z,2.50
2019-06-10T06:51:51.783Z,2.70
2019-06-10T06:54:12.663Z,2.40
2019-06-10T06:56:43.834Z,2.63
2019-06-10T06:59:13.208Z,2.80
2019-06-10T07:01:44.297Z,2.57
2019-06-10T07:04:13.117Z,2.80
2019-06-10T07:06:43.273Z,2.77
2019-06-10T07:09:13.505Z,2.50
2019-06-10T07:11:45.229Z,2.40
2019-06-10T07:14:14.255Z,2.50
2019-06-10T07:16:45.922Z,2.53
2019-06-10T07:19:13.548Z,2.60
2019-06-10T07:22:02.718Z,2.60
2019-06-10T07:24:12.827Z,2.80
2019-06-10T07:26:49.517Z,2.73
2019-06-10T07:29:13.235Z,2.70
2019-06-10T07:31:45.946Z,2.40
2019-06-10T07:34:13.034Z,2.60
2019-06-10T07:36:44.110Z,2.50
2019-06-10T07:39:13.440Z,2.47
2019-06-10T07:41:47.414Z,2.70
2019-06-10T07:44:12.878Z,2.40
2019-06-10T07:46:43.811Z,2.83
2019-06-10T07:49:13.494Z,2.90
2019-06-10T07:51:46.145Z,2.80
2019-06-10T07:54:12.977Z,2.90
2019-06-10T07:56:49.472Z,3.33
2019-06-10T07:59:12.879Z,2.90
2019-06-10T08:01:48.150Z,3.27
2019-06-10T08:04:12.294Z,2.20
2019-06-10T08:06:44.148Z,2.50
2019-06-10T08:09:12.630Z,2.70
2019-06-10T08:11:44.934Z,2.73
2019-06-10T08:14:13.021Z,2.80
2019-06-10T08:16:46.060Z,2.60
2019-06-10T08:19:34.672Z,2.57
2019-06-10T08:21:47.020Z,2.80
2019-06-10T08:24:13.355Z,2.77
2019-06-10T08:26:43.691Z,2.70
2019-06-10T08:29:12.800Z,2.77
2019-06-10T08:31:47.570Z,2.67
2019-06-10T08:34:13.461Z,2.70
2019-06-10T08:36:47.200Z,2.60
2019-06-10T08:39:15.817Z,2.43
2019-06-10T08:41:46.092Z,2.30
2019-06-10T08:44:13.858Z,2.73
2019-06-10T08:46:44.976Z,2.60
2019-06-10T08:49:13.074Z,2.70
2019-06-10T08:51:45.443Z,2.67
2019-06-10T08:54:12.816Z,2.60
2019-06-10T08:56:45.565Z,2.90
2019-06-10T08:59:12.498Z,2.53
2019-06-10T09:01:46.056Z,2.90
2019-06-10T09:04:13.323Z,2.50
2019-06-10T09:06:47.199Z,2.70
2019-06-10T09:09:13.025Z,2.80
2019-06-10T09:11:45.632Z,2.70
2019-06-10T09:14:12.757Z,2.40
2019-06-10T09:16:44.405Z,2.90
2019-06-10T09:19:13.143Z,2.60
2019-06-10T09:21:48.189Z,2.47
2019-06-10T09:24:13.021Z,2.60
2019-06-10T09:26:45.139Z,2.50
2019-06-10T09:29:13.408Z,2.90
2019-06-10T09:31:46.793Z,2.50
2019-06-10T09:34:12.966Z,2.70
2019-06-10T09:36:46.202Z,2.73
2019-06-10T09:39:12.677Z,2.60
2019-06-10T09:41:51.838Z,2.40
2019-06-10T09:44:13.126Z,2.90
2019-06-10T09:46:47.031Z,2.80
2019-06-10T09:49:13.994Z,2.63
2019-06-10T09:51:45.868Z,2.80
2019-06-10T09:54:13.215Z,2.80
2019-06-10T09:56:45.124Z,2.70
2019-06-10T09:59:13.657Z,2.60
2019-06-10T10:01:47.271Z,2.73
2019-06-10T10:04:12.923Z,2.40
2019-06-10T10:06:46.474Z,2.63
2019-06-10T10:09:12.670Z,2.40
2019-06-10T10:11:44.098Z,2.90
2019-06-10T10:14:15.845Z,2.60
2019-06-10T10:16:46.718Z,2.87
2019-06-10T10:19:13.200Z,3.07
2019-06-10T10:21:47.729Z,2.90
2019-06-10T10:24:15.031Z,2.70
2019-06-10T10:26:46.699Z,2.90
2019-06-10T10:29:13.420Z,2.90
2019-06-10T10:31:45.248Z,2.70
2019-06-10T10:34:13.417Z,2.60
2019-06-10T10:36:45.013Z,2.53
2019-06-10T10:39:13.914Z,2.70
2019-06-10T10:41:45.153Z,2.73
2019-06-10T10:44:14.669Z,2.40
2019-06-10T10:46:45.497Z,2.80
2019-06-10T10:49:14.666Z,2.60
2019-06-10T10:51:43.427Z,2.77
2019-06-10T10:54:25.520Z,3.10
2019-06-10T10:56:43.627Z,2.63
2019-06-10T10:59:13.475Z,2.13
2019-06-10T11:01:43.780Z,2.40
2019-06-10T11:04:13.438Z,2.67
2019-06-10T11:06:44.100Z,2.67
2019-06-10T11:09:13.517Z,2.97
2019-06-10T11:11:44.121Z,2.50
2019-06-10T11:14:15.087Z,2.50
2019-06-10T11:16:43.367Z,2.53
2019-06-10T11:19:12.993Z,2.50
2019-06-10T11:21:42.661Z,2.60
2019-06-10T11:24:15.822Z,2.33
2019-06-10T11:26:43.279Z,2.40
2019-06-10T11:29:12.319Z,2.50
2019-06-10T11:31:42.626Z,2.23
2019-06-10T11:34:11.668Z,2.50
2019-06-10T11:36:42.402Z,2.40
2019-06-10T11:39:13.206Z,2.30
2019-06-10T11:41:43.146Z,2.40
2019-06-10T11:44:12.059Z,2.57
2019-06-10T11:46:42.993Z,2.43
2019-06-10T11:49:12.570Z,2.57
2019-06-10T11:51:41.463Z,2.33
2019-06-10T11:54:12.633Z,2.80
2019-06-10T11:56:42.157Z,2.60
2019-06-10T11:59:13.334Z,2.80
2019-06-10T12:01:42.611Z,2.23
2019-06-10T12:04:12.834Z,2.33
2019-06-10T12:06:42.593Z,2.40
2019-06-10T12:09:13.711Z,2.60
2019-06-10T12:11:43.755Z,3.17
2019-06-10T12:14:13.044Z,2.60
2019-06-10T12:19:12.883Z,2.80
2019-06-10T12:21:43.477Z,2.80
2019-06-10T12:24:12.646Z,2.47
2019-06-10T12:26:43.462Z,2.47
2019-06-10T12:29:12.525Z,2.80
2019-06-10T12:31:42.860Z,2.60
2019-06-10T12:34:12.505Z,2.70
2019-06-10T12:36:41.501Z,2.70
2019-06-10T12:39:11.949Z,2.57
2019-06-10T12:41:42.932Z,2.60
2019-06-10T12:44:12.384Z,2.27
2019-06-10T12:46:43.354Z,2.20
2019-06-10T12:49:13.091Z,2.60
2019-06-10T12:51:42.839Z,2.70
2019-06-10T12:54:13.154Z,2.40
2019-06-10T12:56:42.928Z,2.50
2019-06-10T12:59:13.645Z,2.30
2019-06-10T13:01:44.662Z,2.60
2019-06-10T13:04:13.946Z,2.70
2019-06-10T13:06:44.052Z,2.50
2019-06-10T13:09:12.970Z,2.30
2019-06-10T13:11:43.370Z,2.57
2019-06-10T13:14:13.021Z,2.60
2019-06-10T13:16:43.297Z,2.10
2019-06-10T13:19:13.179Z,2.37
2019-06-10T13:21:42.666Z,2.57
2019-06-10T13:24:13.181Z,2.30
2019-06-10T13:26:43.202Z,2.30
2019-06-10T13:29:17.245Z,2.60
2019-06-10T13:31:43.585Z,2.40
2019-06-10T13:34:14.673Z,2.33
2019-06-10T13:36:43.214Z,2.23
2019-06-10T13:39:13.403Z,2.00
2019-06-10T13:41:43.777Z,2.10
2019-06-10T13:44:16.518Z,2.40
2019-06-10T13:46:43.509Z,2.50
2019-06-10T13:49:13.130Z,2.30
2019-06-10T13:51:43.985Z,2.60
2019-06-10T13:54:13.998Z,2.40
2019-06-10T13:56:47.491Z,2.23
2019-06-10T13:59:14.218Z,2.23
2019-06-10T14:01:43.235Z,2.33
2019-06-10T14:04:20.642Z,2.40
2019-06-10T14:06:49.891Z,2.23
2019-06-10T14:09:16.648Z,2.30
2019-06-10T14:11:43.336Z,2.47
2019-06-10T14:14:17.574Z,2.23
2019-06-10T14:16:42.583Z,2.30
2019-06-10T14:19:15.700Z,2.30
2019-06-10T14:21:42.555Z,2.73
2019-06-10T14:24:15.805Z,2.47
2019-06-10T14:26:44.791Z,2.50
2019-06-10T14:29:15.612Z,2.13
2019-06-10T14:31:44.995Z,2.30
2019-06-10T14:34:16.717Z,2.60
2019-06-10T14:36:43.804Z,2.40
2019-06-10T14:39:14.333Z,2.40
2019-06-10T14:41:43.161Z,2.50
2019-06-10T14:44:16.093Z,2.80
2019-06-10T14:46:42.621Z,2.50
2019-06-10T14:49:13.582Z,2.43
2019-06-10T14:51:43.080Z,2.10
2019-06-10T14:54:14.645Z,2.27
2019-06-10T14:56:52.843Z,2.50
2019-06-10T14:59:15.997Z,2.17
2019-06-10T15:01:43.536Z,2.17
2019-06-10T15:04:14.738Z,2.27
2019-06-10T15:06:43.381Z,2.60
2019-06-10T15:09:13.609Z,2.13
2019-06-10T15:11:42.882Z,2.20
2019-06-10T15:14:14.217Z,2.57
2019-06-10T15:16:43.769Z,2.40
2019-06-10T15:19:20.009Z,2.50
2019-06-10T15:21:43.184Z,2.30
2019-06-10T15:24:12.054Z,2.40
2019-06-10T15:26:42.229Z,2.10
2019-06-10T15:29:14.046Z,1.90
2019-06-10T15:31:42.926Z,2.10
2019-06-10T15:34:15.016Z,2.43
2019-06-10T15:36:43.259Z,2.40
2019-06-10T15:39:16.166Z,2.40
2019-06-10T15:41:42.948Z,2.20
2019-06-10T15:44:14.639Z,2.77
2019-06-10T15:46:43.084Z,2.40
2019-06-10T15:49:16.382Z,2.40
2019-06-10T15:51:43.561Z,2.30
2019-06-10T15:54:14.012Z,2.50
2019-06-10T15:56:52.041Z,2.13
2019-06-10T15:59:15.348Z,2.10
2019-06-10T16:01:44.179Z,2.57
2019-06-10T16:04:15.713Z,2.50
2019-06-10T16:06:43.513Z,2.27
2019-06-10T16:09:13.887Z,1.93
2019-06-10T16:11:43.668Z,2.20
2019-06-10T16:14:12.693Z,2.17
2019-06-10T16:16:43.220Z,2.13
2019-06-10T16:19:13.309Z,2.10
2019-06-10T16:21:42.984Z,2.40
2019-06-10T16:24:13.588Z,2.60
2019-06-10T16:26:42.295Z,2.40
2019-06-10T16:29:12.295Z,2.83
2019-06-10T16:31:42.598Z,2.10
2019-06-10T16:34:12.779Z,2.37
2019-06-10T16:36:42.743Z,2.80
2019-06-10T16:39:12.551Z,2.90
2019-06-10T16:41:43.053Z,2.37
2019-06-10T16:44:13.528Z,2.30
2019-06-10T16:46:43.064Z,2.27
2019-06-10T16:49:12.738Z,2.33
2019-06-10T16:51:42.947Z,2.20
2019-06-10T16:54:13.023Z,2.30
2019-06-10T16:56:43.479Z,2.47
2019-06-10T16:59:12.485Z,2.37
2019-06-10T17:01:42.749Z,2.40
2019-06-10T17:04:12.501Z,2.47
2019-06-10T17:06:42.210Z,2.60
2019-06-10T17:09:13.336Z,2.40
2019-06-10T17:11:42.637Z,2.27
2019-06-10T17:14:12.569Z,2.73
2019-06-10T17:16:41.580Z,2.50
2019-06-10T17:19:10.329Z,2.40
2019-06-10T17:21:39.138Z,2.30
2019-06-10T17:24:08.029Z,2.20
2019-06-10T17:26:38.292Z,2.20
2019-06-10T17:29:07.380Z,2.30
2019-06-10T17:31:36.218Z,2.47
2019-06-10T17:34:05.177Z,2.13
2019-06-10T17:36:35.461Z,2.27
2019-06-10T17:39:05.754Z,2.30
2019-06-10T17:41:35.265Z,2.40
2019-06-10T17:44:04.510Z,2.37
2019-06-10T17:46:35.168Z,2.20
2019-06-10T17:49:03.924Z,2.50
2019-06-10T17:51:35.549Z,2.10
2019-06-10T17:54:03.138Z,2.60
2019-06-10T17:56:35.846Z,2.23
2019-06-10T17:59:03.366Z,2.20
2019-06-10T18:01:34.179Z,2.60
2019-06-10T18:04:02.903Z,2.30
2019-06-10T18:06:34.399Z,2.50
2019-06-10T18:09:04.055Z,2.20
2019-06-10T18:11:35.870Z,2.70
2019-06-10T18:14:04.936Z,2.40
2019-06-10T18:16:36.436Z,2.20
2019-06-10T18:19:04.207Z,2.10
2019-06-10T18:21:34.714Z,2.40
2019-06-10T18:24:08.130Z,2.43
2019-06-10T18:26:36.249Z,2.37
2019-06-10T18:29:08.530Z,2.40
2019-06-10T18:31:35.689Z,2.37
2019-06-10T18:34:05.396Z,2.33
2019-06-10T18:36:35.827Z,2.93
2019-06-10T18:39:05.802Z,2.30
2019-06-10T18:41:34.583Z,2.37
2019-06-10T18:44:18.509Z,2.67
2019-06-10T18:46:36.152Z,2.63
2019-06-10T18:49:04.367Z,2.67
2019-06-10T18:51:35.591Z,2.70
2019-06-10T18:54:03.797Z,2.70
2019-06-10T18:56:34.271Z,2.77
2019-06-10T18:59:16.174Z,2.40
2019-06-10T19:01:34.378Z,2.43
2019-06-10T19:04:03.267Z,2.33
2019-06-10T19:06:33.848Z,2.83
2019-06-10T19:09:03.272Z,2.33
2019-06-10T19:11:34.113Z,2.40
2019-06-10T19:14:03.301Z,2.20
2019-06-10T19:16:34.177Z,2.23
2019-06-10T19:19:02.922Z,2.20
2019-06-10T19:21:32.359Z,1.90
2019-06-10T19:24:03.226Z,2.20
2019-06-10T19:26:33.884Z,2.23
2019-06-10T19:29:03.798Z,2.20
2019-06-10T19:31:36.298Z,1.90
2019-06-10T19:34:03.545Z,2.00
2019-06-10T19:36:33.601Z,2.00
2019-06-10T19:39:02.592Z,2.17
2019-06-10T19:41:35.739Z,2.00
2019-06-10T19:44:02.506Z,1.90
2019-06-10T19:46:33.798Z,2.10
2019-06-10T19:49:04.062Z,2.10
2019-06-10T19:51:32.996Z,2.00
2019-06-10T19:54:03.674Z,1.80
2019-06-10T19:56:33.032Z,2.00
2019-06-10T19:59:01.987Z,2.10
2019-06-10T20:01:33.297Z,1.87
2019-06-10T20:04:02.633Z,1.90
2019-06-10T20:06:32.219Z,1.60
2019-06-10T20:09:02.734Z,1.73
2019-06-10T20:11:32.201Z,2.07
2019-06-10T20:14:02.611Z,1.80
2019-06-10T20:16:31.720Z,2.17
2019-06-10T20:19:02.898Z,1.90
2019-06-10T20:21:32.858Z,1.77
2019-06-10T20:24:02.719Z,2.10
2019-06-10T20:26:32.887Z,1.80
2019-06-10T20:29:03.827Z,1.97
2019-06-10T20:31:32.660Z,1.80
2019-06-10T20:34:02.669Z,1.80
2019-06-10T20:36:33.474Z,1.87
2019-06-10T20:39:02.378Z,2.10
2019-06-10T20:41:31.181Z,1.90
2019-06-10T20:44:02.644Z,2.00
2019-06-10T20:46:32.344Z,1.80
2019-06-10T20:49:03.315Z,1.90
2019-06-10T20:51:40.557Z,1.70
2019-06-10T20:54:02.678Z,1.93
2019-06-10T20:56:33.665Z,2.00
2019-06-10T20:59:02.858Z,1.80
2019-06-10T21:01:33.185Z,2.00
2019-06-10T21:04:03.265Z,1.77
2019-06-10T21:06:34.325Z,1.80
2019-06-10T21:09:03.698Z,1.80
2019-06-10T21:11:32.503Z,1.80
2019-06-10T21:14:03.133Z,2.17
2019-06-10T21:16:32.143Z,2.00
2019-06-10T21:19:01.151Z,1.80
2019-06-10T21:21:32.534Z,1.70
2019-06-10T21:24:02.249Z,1.73
2019-06-10T21:26:32.507Z,1.67
2019-06-10T21:29:03.658Z,1.73
2019-06-10T21:31:32.596Z,1.90
2019-06-10T21:34:02.848Z,1.90
2019-06-10T21:36:32.226Z,1.80
2019-06-10T21:39:02.740Z,1.53
2019-06-10T21:41:31.732Z,1.90
2019-06-10T21:44:03.069Z,1.77
2019-06-10T21:46:32.622Z,2.00
2019-06-10T21:49:02.482Z,1.97
2019-06-10T21:51:34.443Z,1.83
2019-06-10T21:54:03.008Z,1.60
2019-06-10T21:56:32.853Z,1.93
2019-06-10T21:59:02.424Z,1.73
2019-06-10T22:01:32.587Z,1.60
2019-06-10T22:04:04.383Z,1.90
2019-06-10T22:06:33.143Z,2.20
2019-06-10T22:09:04.044Z,2.07
2019-06-10T22:11:32.628Z,1.90
2019-06-10T22:14:02.814Z,2.20
2019-06-10T22:16:32.960Z,2.10
2019-06-10T22:19:03.288Z,2.07
2019-06-10T22:21:32.665Z,2.30
2019-06-10T22:24:02.265Z,1.70
2019-06-10T22:26:32.263Z,2.00
2019-06-10T22:29:01.267Z,2.00
2019-06-10T22:31:32.485Z,2.00
2019-06-10T22:34:00.534Z,2.10
2019-06-10T22:36:29.276Z,1.60
2019-06-10T22:38:59.346Z,1.70
2019-06-10T22:41:28.414Z,2.27
2019-06-10T22:43:57.593Z,1.87
2019-06-10T22:46:26.527Z,1.63
2019-06-10T22:48:55.384Z,2.07
2019-06-10T22:51:24.111Z,1.90
2019-06-10T22:53:56.133Z,2.10
2019-06-10T22:56:23.259Z,1.57
2019-06-10T22:58:53.942Z,1.60
2019-06-10T23:01:33.564Z,2.00
2019-06-10T23:03:54.090Z,1.77
2019-06-10T23:06:23.380Z,1.43
2019-06-10T23:08:54.767Z,1.73
2019-06-10T23:11:24.025Z,1.83
2019-06-10T23:13:53.819Z,1.57
2019-06-10T23:16:23.449Z,1.70
2019-06-10T23:18:54.945Z,1.47
2019-06-10T23:21:22.849Z,1.40
2019-06-10T23:23:53.802Z,1.33
2019-06-10T23:26:22.552Z,1.80
2019-06-10T23:28:54.048Z,1.40
2019-06-10T23:31:23.070Z,1.50
2019-06-10T23:33:55.962Z,1.57
2019-06-10T23:36:23.566Z,1.60
2019-06-10T23:38:52.862Z,1.40
2019-06-10T23:41:22.474Z,1.70
2019-06-10T23:43:51.309Z,1.90
2019-06-10T23:46:22.555Z,1.40
2019-06-10T23:48:51.458Z,1.70
2019-06-10T23:51:22.644Z,1.80
2019-06-10T23:53:56.303Z,1.63
2019-06-10T23:56:22.101Z,2.00
2019-06-10T23:58:52.799Z,2.20
